Terminal Aerodrome Forecast
Issued by NWS Goodland, KS

Home | Current Version | Previous Version | Text Only | Print | Product List | Glossary On
Versions: 1 2 3 4 5 6 7 8 9 10
000
FTUS43 KGLD 260520
TAFGLD
TAF
KGLD 260520Z 2606/2706 01010G20KT 6SM -SHSN BR OVC005
      TEMPO 2606/2608 3SM -SN BR
     FM260800 01010G20KT 2SM -SN BR OVC005
     FM261300 02014G24KT 1/2SM -SN BLSN FZFG OVC003
     FM262200 36010G20KT 2SM -SN BR OVC010=

USA.gov is the U.S. government's official web portal to all federal, state and local government web resources and services.